Time;durP1;ratioP1;P1;durP2;ratioP2;P2;SDS_P1;SDS_P2;PMS_P1;PMS_P2;Temp;Humidity;BMP_temperature;BMP_pressure;BME280_temperature;BME280_humidity;BME280_pressure;Samples;Min_cycle;Max_cycle;Signal;HPM_P1;HPM_P2
2021/10/14 00:00:57;;;;;;;;;;;;;;;20.02;63.87;101415.31;2083932;28;842;-64
2021/10/14 00:01:57;;;;;;;;;;;;;;;19.99;63.23;101411.75;2083985;28;976;-64
2021/10/14 00:02:58;;;;;;;;;;;;;;;19.96;63.73;101410.91;2083909;28;961;-63
2021/10/14 00:03:58;;;;;;;;;;;;;;;19.91;63.87;101413.72;2083703;28;980;-63
2021/10/14 00:04:58;;;;;;;;;;;;;;;19.89;63.57;101399.44;2083910;28;727;-64
2021/10/14 00:05:59;;;;;;;;;;;;;;;19.94;62.66;101408.28;2083943;28;850;-64
2021/10/14 00:06:59;;;;;;;;;;;;;;;19.91;63.68;101408.34;2083911;28;968;-64
2021/10/14 00:07:59;;;;;;;;;;;;;;;19.93;62.96;101405.59;2083906;28;949;-64
2021/10/14 00:08:59;;;;;;;;;;;;;;;19.91;63.06;101402.97;2083863;28;968;-65
2021/10/14 00:09:59;;;;;;;;;;;;;;;19.93;63.18;101398.44;2083325;28;1348;-65
2021/10/14 00:10:59;;;;;;;;;;;;;;;19.91;63.85;101394.91;2083939;28;866;-65
2021/10/14 00:12:00;;;;;;;;;;;;;;;19.85;63.73;101400.38;2083649;28;1032;-65
2021/10/14 00:13:00;;;;;;;;;;;;;;;19.84;63.36;101385.16;2083773;28;969;-66
2021/10/14 00:14:00;;;;;;;;;;;;;;;19.85;63.36;101382.41;2083886;28;1497;-64
2021/10/14 00:15:00;;;;;;;;;;;;;;;19.84;63.29;101390.53;2083561;28;977;-64
2021/10/14 00:16:01;;;;;;;;;;;;;;;19.80;64.48;101376.25;2083846;28;1040;-64
2021/10/14 00:17:01;;;;;;;;;;;;;;;19.82;62.97;101377.13;2083749;28;1969;-64
2021/10/14 00:18:01;;;;;;;;;;;;;;;19.83;63.38;101372.63;2083652;28;874;-64
2021/10/14 00:19:02;;;;;;;;;;;;;;;19.82;63.77;101371.72;2083783;28;1009;-65
2021/10/14 00:20:03;;;;;;;;;;;;;;;19.79;63.70;101373.63;2083698;28;1027;-64
2021/10/14 00:21:03;;;;;;;;;;;;;;;19.80;63.71;101368.19;2083366;28;1098;-64
2021/10/14 00:22:03;;;;;;;;;;;;;;;19.82;63.57;101370.88;2083744;28;956;-65
2021/10/14 00:23:03;;;;;;;;;;;;;;;19.83;63.20;101372.63;2083735;28;786;-65
2021/10/14 00:24:04;;;;;;;;;;;;;;;19.83;63.82;101367.25;2083768;28;854;-65
2021/10/14 00:25:04;;;;;;;;;;;;;;;19.80;64.10;101372.69;2083667;28;1028;-65
2021/10/14 00:26:05;;;;;;;;;;;;;;;19.80;63.09;101370.00;2083526;28;837;-66
2021/10/14 00:27:05;;;;;;;;;;;;;;;19.78;63.99;101371.84;2083628;28;886;-65
2021/10/14 00:28:05;;;;;;;;;;;;;;;19.81;63.40;101377.16;2083733;28;724;-65
2021/10/14 00:29:05;;;;;;;;;;;;;;;19.80;63.59;101378.94;2083674;28;1025;-66
2021/10/14 00:30:06;;;;;;;;;;;;;;;19.78;63.66;101372.72;2083622;28;850;-65
2021/10/14 00:31:06;;;;;;;;;;;;;;;19.76;64.09;101374.56;2083731;28;729;-65
2021/10/14 00:32:06;;;;;;;;;;;;;;;19.76;63.52;101379.06;2083678;28;863;-65
2021/10/14 00:33:06;;;;;;;;;;;;;;;19.81;63.22;101366.41;2083534;28;969;-65
2021/10/14 00:34:07;;;;;;;;;;;;;;;19.80;63.01;101364.63;2083690;28;803;-65
2021/10/14 00:35:07;;;;;;;;;;;;;;;19.84;62.51;101359.16;2083675;28;854;-65
2021/10/14 00:36:07;;;;;;;;;;;;;;;19.84;63.20;101353.78;2083640;28;1040;-65
2021/10/14 00:37:08;;;;;;;;;;;;;;;19.83;63.51;101352.00;2083551;28;1957;-65
2021/10/14 00:38:08;;;;;;;;;;;;;;;19.87;63.19;101354.63;2083647;28;751;-65
2021/10/14 00:39:08;;;;;;;;;;;;;;;19.86;63.84;101351.06;2083552;28;1198;-65
2021/10/14 00:40:09;;;;;;;;;;;;;;;19.83;63.76;101356.50;2083635;28;792;-65
2021/10/14 00:41:09;;;;;;;;;;;;;;;19.88;63.23;101357.28;2083687;28;1020;-65
2021/10/14 00:42:11;;;;;;;;;;;;;;;19.91;62.96;101354.56;2083564;28;1087;-65
2021/10/14 00:43:11;;;;;;;;;;;;;;;19.91;63.14;101359.03;2083563;28;1055;-65
2021/10/14 00:44:11;;;;;;;;;;;;;;;19.89;62.92;101358.19;2083545;28;775;-65
2021/10/14 00:45:12;;;;;;;;;;;;;;;19.89;62.95;101356.41;2083198;28;1216;-66
2021/10/14 00:46:16;;;;;;;;;;;;;;;19.86;63.18;101361.81;2083597;28;829;-66
2021/10/14 00:47:24;;;;;;;;;;;;;;;19.87;63.06;101368.97;2083526;28;780;-65
2021/10/14 00:48:24;;;;;;;;;;;;;;;19.92;62.67;101372.47;2083574;28;790;-65
2021/10/14 00:49:24;;;;;;;;;;;;;;;19.91;62.77;101380.56;2083529;28;961;-65
2021/10/14 00:50:24;;;;;;;;;;;;;;;19.91;62.54;101375.19;2083388;28;826;-65
2021/10/14 00:51:27;;;;;;;;;;;;;;;19.90;62.52;101376.09;2083518;28;846;-65
2021/10/14 00:52:27;;;;;;;;;;;;;;;19.91;62.93;101376.09;2083433;28;806;-65
2021/10/14 00:53:27;;;;;;;;;;;;;;;19.90;62.82;101377.00;2083125;28;823;-65
2021/10/14 00:54:27;;;;;;;;;;;;;;;19.91;62.73;101373.41;2083539;28;909;-65
2021/10/14 00:55:27;;;;;;;;;;;;;;;19.91;62.62;101369.81;2083545;28;1083;-65
2021/10/14 00:56:27;;;;;;;;;;;;;;;19.92;62.38;101367.09;2083411;28;977;-65
2021/10/14 00:57:29;;;;;;;;;;;;;;;19.93;62.58;101374.25;2083373;28;1968;-65
2021/10/14 00:58:29;;;;;;;;;;;;;;;19.93;62.04;101371.56;2083279;28;780;-65
2021/10/14 00:59:29;;;;;;;;;;;;;;;19.91;62.62;101365.31;2083498;28;909;-65
2021/10/14 01:00:29;;;;;;;;;;;;;;;19.90;62.45;101379.69;2083417;28;803;-66
2021/10/14 01:01:30;;;;;;;;;;;;;;;19.85;63.22;101374.34;2083197;28;865;-65
2021/10/14 01:02:30;;;;;;;;;;;;;;;19.85;62.58;101363.59;2083415;28;969;-66
2021/10/14 01:03:30;;;;;;;;;;;;;;;19.89;62.24;101361.78;2083480;28;811;-65
2021/10/14 01:04:30;;;;;;;;;;;;;;;19.90;62.86;101363.56;2083253;28;1035;-65
2021/10/14 01:05:31;;;;;;;;;;;;;;;19.90;63.06;101363.56;2083395;28;1501;-65
2021/10/14 01:06:31;;;;;;;;;;;;;;;19.87;62.68;101366.28;2083506;28;788;-65
2021/10/14 01:07:31;;;;;;;;;;;;;;;19.90;62.39;101358.19;2083345;28;837;-65
2021/10/14 01:08:32;;;;;;;;;;;;;;;19.89;62.88;101361.78;2083460;28;787;-65
2021/10/14 01:09:32;;;;;;;;;;;;;;;19.85;63.06;101366.28;2083311;28;1298;-66
2021/10/14 01:10:32;;;;;;;;;;;;;;;19.90;62.24;101368.94;2083346;28;1224;-65
2021/10/14 01:11:32;;;;;;;;;;;;;;;19.88;62.70;101370.72;2083457;28;819;-65
2021/10/14 01:12:33;;;;;;;;;;;;;;;19.89;63.16;101359.09;2082923;28;961;-65
2021/10/14 01:13:33;;;;;;;;;;;;;;;19.88;62.80;101365.34;2083412;28;790;-66
2021/10/14 01:14:33;;;;;;;;;;;;;;;19.90;62.80;101365.34;2083410;28;846;-65
2021/10/14 01:15:33;;;;;;;;;;;;;;;19.85;62.68;101365.41;2083382;28;853;-66
2021/10/14 01:16:40;;;;;;;;;;;;;;;19.86;62.78;101367.19;2083415;28;980;-66
2021/10/14 01:17:40;;;;;;;;;;;;;;;19.91;62.77;101361.72;2083260;28;1985;-65
2021/10/14 01:18:41;;;;;;;;;;;;;;;19.88;63.23;101359.97;2083373;28;969;-65
2021/10/14 01:19:41;;;;;;;;;;;;;;;19.87;62.44;101351.94;2083278;28;1012;-65
2021/10/14 01:20:41;;;;;;;;;;;;;;;19.86;63.00;101348.38;2083299;28;1000;-65
2021/10/14 01:21:42;;;;;;;;;;;;;;;19.87;61.96;101344.78;2082763;28;843;-64
2021/10/14 01:22:42;;;;;;;;;;;;;;;19.88;62.59;101353.69;2083118;28;783;-64
2021/10/14 01:23:42;;;;;;;;;;;;;;;19.87;63.02;101344.78;2083345;28;1125;-65
2021/10/14 01:24:46;;;;;;;;;;;;;;;19.87;63.76;101344.78;2083342;28;866;-64
2021/10/14 01:25:46;;;;;;;;;;;;;;;19.89;63.03;101342.06;2083198;28;819;-64
2021/10/14 01:26:47;;;;;;;;;;;;;;;19.90;62.63;101346.53;2083320;28;815;-65
2021/10/14 01:27:48;;;;;;;;;;;;;;;19.89;62.02;101345.66;2083259;28;1041;-64
2021/10/14 01:28:48;;;;;;;;;;;;;;;19.87;62.63;101347.47;2083369;28;771;-64
2021/10/14 01:29:49;;;;;;;;;;;;;;;19.86;62.82;101345.69;2083361;28;961;-64
2021/10/14 01:30:49;;;;;;;;;;;;;;;19.86;63.25;101343.00;2083028;28;763;-64
2021/10/14 01:31:49;;;;;;;;;;;;;;;19.83;62.82;101341.25;2083310;28;743;-64
2021/10/14 01:32:49;;;;;;;;;;;;;;;19.84;63.05;101344.84;2083314;28;823;-65
2021/10/14 01:33:49;;;;;;;;;;;;;;;19.82;64.00;101338.59;2082596;28;1045;-64
2021/10/14 01:34:49;;;;;;;;;;;;;;;19.84;62.95;101339.47;2082823;28;945;-64
2021/10/14 01:35:50;;;;;;;;;;;;;;;19.86;62.29;101337.63;2083052;28;969;-65
2021/10/14 01:36:50;;;;;;;;;;;;;;;19.86;63.87;101340.31;2083022;28;1422;-65
2021/10/14 01:37:50;;;;;;;;;;;;;;;19.88;62.95;101322.34;2083182;28;1898;-65
2021/10/14 01:38:50;;;;;;;;;;;;;;;19.91;62.78;101329.47;2082971;28;854;-64
2021/10/14 01:39:50;;;;;;;;;;;;;;;19.88;63.20;101325.03;2082602;28;910;-65
2021/10/14 01:40:50;;;;;;;;;;;;;;;19.89;63.14;101324.16;2082674;28;1044;-65
2021/10/14 01:41:51;;;;;;;;;;;;;;;19.93;62.89;101322.25;2083185;28;1028;-66
2021/10/14 01:42:52;;;;;;;;;;;;;;;19.91;63.27;101319.63;2083308;28;893;-66
2021/10/14 01:43:52;;;;;;;;;;;;;;;19.85;63.13;101317.91;2082971;28;969;-65
2021/10/14 01:44:52;;;;;;;;;;;;;;;19.89;62.69;101315.19;2083213;28;921;-65
2021/10/14 01:45:52;;;;;;;;;;;;;;;19.83;62.75;101313.50;2083265;28;976;-65
2021/10/14 01:46:52;;;;;;;;;;;;;;;19.85;62.64;101317.91;2082923;28;883;-64
2021/10/14 01:47:52;;;;;;;;;;;;;;;19.89;63.63;101309.78;2083123;28;792;-64
2021/10/14 01:48:53;;;;;;;;;;;;;;;19.90;62.58;101317.84;2083180;28;965;-65
2021/10/14 01:49:53;;;;;;;;;;;;;;;19.91;62.79;101310.66;2083251;28;760;-64
2021/10/14 01:50:53;;;;;;;;;;;;;;;19.91;63.68;101316.03;2082504;28;1021;-64
2021/10/14 01:51:53;;;;;;;;;;;;;;;19.91;63.02;101316.03;2082570;28;921;-65
2021/10/14 01:52:54;;;;;;;;;;;;;;;19.86;64.18;101313.44;2083065;28;973;-64
2021/10/14 01:53:54;;;;;;;;;;;;;;;19.85;63.71;101312.53;2083184;28;962;-64
2021/10/14 01:54:54;;;;;;;;;;;;;;;19.85;63.26;101306.28;2083158;28;922;-65
2021/10/14 01:55:54;;;;;;;;;;;;;;;19.84;63.53;101305.38;2083168;28;1028;-64
2021/10/14 01:56:54;;;;;;;;;;;;;;;19.81;63.89;101304.56;2082998;28;1894;-64
2021/10/14 01:57:54;;;;;;;;;;;;;;;19.83;63.38;101302.75;2082999;28;827;-65
2021/10/14 01:58:54;;;;;;;;;;;;;;;19.87;62.88;101303.53;2083094;28;972;-65
2021/10/14 01:59:55;;;;;;;;;;;;;;;19.84;62.83;101302.69;2083125;28;973;-65
2021/10/14 02:00:55;;;;;;;;;;;;;;;19.89;62.55;101296.34;2082915;28;1032;-65
2021/10/14 02:01:55;;;;;;;;;;;;;;;19.86;63.41;101299.97;2083078;28;816;-65
2021/10/14 02:02:55;;;;;;;;;;;;;;;19.85;62.92;101298.22;2083133;28;885;-65
2021/10/14 02:03:55;;;;;;;;;;;;;;;19.89;63.13;101291.88;2082699;28;936;-65
2021/10/14 02:04:55;;;;;;;;;;;;;;;19.91;62.41;101294.50;2083202;28;1024;-65
2021/10/14 02:05:56;;;;;;;;;;;;;;;19.94;62.74;101294.44;2083101;28;977;-65
2021/10/14 02:06:56;;;;;;;;;;;;;;;19.93;62.80;101290.88;2082458;28;792;-64
2021/10/14 02:07:56;;;;;;;;;;;;;;;19.92;63.51;101288.22;2082619;28;812;-64
2021/10/14 02:08:56;;;;;;;;;;;;;;;19.94;62.58;101286.38;2082925;28;973;-65
2021/10/14 02:09:56;;;;;;;;;;;;;;;19.93;63.20;101284.59;2082914;28;1175;-64
2021/10/14 02:10:56;;;;;;;;;;;;;;;19.91;62.74;101284.66;2083175;28;779;-64
2021/10/14 02:11:57;;;;;;;;;;;;;;;19.89;63.11;101275.75;2082869;28;855;-64
2021/10/14 02:12:57;;;;;;;;;;;;;;;19.94;62.63;101283.69;2083098;28;1020;-64
2021/10/14 02:13:57;;;;;;;;;;;;;;;19.90;63.90;101272.13;2083067;28;985;-64
2021/10/14 02:14:57;;;;;;;;;;;;;;;19.87;62.85;101274.88;2083051;28;862;-64
2021/10/14 02:15:57;;;;;;;;;;;;;;;19.86;63.88;101275.78;2083062;28;1076;-64
2021/10/14 02:16:57;;;;;;;;;;;;;;;19.79;63.49;101271.47;2082666;28;1983;-65
2021/10/14 02:17:58;;;;;;;;;;;;;;;19.77;64.15;101273.31;2083106;28;861;-65
2021/10/14 02:18:58;;;;;;;;;;;;;;;19.76;63.88;101268.84;2082994;28;973;-64
2021/10/14 02:19:58;;;;;;;;;;;;;;;19.77;65.02;101262.56;2082804;28;985;-64
2021/10/14 02:20:58;;;;;;;;;;;;;;;19.76;64.12;101267.03;2083103;28;767;-65
2021/10/14 02:21:58;;;;;;;;;;;;;;;19.70;64.68;101270.75;2083055;28;858;-65
2021/10/14 02:22:58;;;;;;;;;;;;;;;19.74;64.16;101260.81;2083058;28;862;-65
2021/10/14 02:23:58;;;;;;;;;;;;;;;19.75;63.64;101262.56;2083017;28;1202;-65
2021/10/14 02:24:59;;;;;;;;;;;;;;;19.72;63.96;101260.00;2083016;28;883;-65
2021/10/14 02:25:59;;;;;;;;;;;;;;;19.72;64.51;101264.47;2082987;28;890;-65
2021/10/14 02:26:59;;;;;;;;;;;;;;;19.75;63.41;101261.69;2082976;28;1033;-65
2021/10/14 02:27:59;;;;;;;;;;;;;;;19.72;63.48;101262.66;2083048;28;882;-65
2021/10/14 02:28:59;;;;;;;;;;;;;;;19.69;63.53;101260.91;2083069;28;788;-65
2021/10/14 02:30:01;;;;;;;;;;;;;;;19.67;64.00;101253.81;2083056;28;993;-64
2021/10/14 02:31:01;;;;;;;;;;;;;;;19.67;64.53;101251.13;2083021;28;832;-63
2021/10/14 02:32:01;;;;;;;;;;;;;;;19.69;63.82;101247.47;2082900;28;981;-65
2021/10/14 02:33:01;;;;;;;;;;;;;;;19.69;64.19;101252.00;2082984;28;989;-64
2021/10/14 02:34:01;;;;;;;;;;;;;;;19.72;63.75;101241.16;2084467;28;791;-64
2021/10/14 02:35:02;;;;;;;;;;;;;;;19.73;63.38;101244.72;2084597;28;902;-64
2021/10/14 02:36:02;;;;;;;;;;;;;;;19.72;63.11;101240.28;2084583;28;1033;-64
2021/10/14 02:37:02;;;;;;;;;;;;;;;19.69;63.88;101239.41;2088266;28;1964;-64
2021/10/14 02:38:03;;;;;;;;;;;;;;;19.68;63.70;101234.97;2092855;28;817;-64
2021/10/14 02:39:04;;;;;;;;;;;;;;;19.69;64.05;101236.72;2092709;28;736;-64
2021/10/14 02:40:05;;;;;;;;;;;;;;;19.69;63.26;101233.19;2092772;28;909;-64
2021/10/14 02:41:05;;;;;;;;;;;;;;;19.70;64.12;101224.19;2092528;28;1048;-65
2021/10/14 02:42:05;;;;;;;;;;;;;;;19.72;63.26;101226.81;2092574;28;1051;-65
2021/10/14 02:43:05;;;;;;;;;;;;;;;19.65;63.85;101232.34;2092816;28;768;-65
2021/10/14 02:44:05;;;;;;;;;;;;;;;19.65;64.35;101224.28;2092734;28;866;-65
2021/10/14 02:45:06;;;;;;;;;;;;;;;19.63;63.73;101234.19;2092760;28;783;-65
2021/10/14 02:46:06;;;;;;;;;;;;;;;19.64;63.63;101232.41;2092757;28;866;-65
2021/10/14 02:47:06;;;;;;;;;;;;;;;19.60;64.47;101228.88;2092658;28;783;-65
2021/10/14 02:48:06;;;;;;;;;;;;;;;19.59;65.08;101226.25;2092747;28;1052;-65
2021/10/14 02:49:06;;;;;;;;;;;;;;;19.59;64.70;101223.56;2092694;28;763;-64
2021/10/14 02:50:07;;;;;;;;;;;;;;;19.59;64.14;101227.09;2092753;28;854;-65
2021/10/14 02:51:07;;;;;;;;;;;;;;;19.57;64.35;101226.25;2092744;28;1036;-64
2021/10/14 02:52:07;;;;;;;;;;;;;;;19.55;64.24;101228.09;2092711;28;977;-64
2021/10/14 02:53:07;;;;;;;;;;;;;;;19.60;64.30;101225.31;2092717;28;977;-64
2021/10/14 02:54:07;;;;;;;;;;;;;;;19.57;64.89;101226.25;2092573;28;849;-64
2021/10/14 02:55:08;;;;;;;;;;;;;;;19.55;65.20;101223.63;2092742;28;854;-64
2021/10/14 02:56:08;;;;;;;;;;;;;;;19.54;65.16;101231.69;2092685;28;908;-64
2021/10/14 02:57:08;;;;;;;;;;;;;;;19.57;64.57;101228.06;2092497;28;1890;-64
2021/10/14 02:58:08;;;;;;;;;;;;;;;19.57;64.58;101220.88;2092641;28;973;-64
2021/10/14 02:59:10;;;;;;;;;;;;;;;19.59;64.55;101224.41;2092422;28;997;-64
2021/10/14 03:00:11;;;;;;;;;;;;;;;19.60;63.63;101219.94;2092416;28;837;-64
2021/10/14 03:01:11;;;;;;;;;;;;;;;19.54;64.78;101213.78;2092643;28;968;-64
2021/10/14 03:02:11;;;;;;;;;;;;;;;19.53;65.55;101212.03;2092521;28;1110;-64
2021/10/14 03:03:11;;;;;;;;;;;;;;;19.60;64.86;101207.38;2092668;28;976;-64
2021/10/14 03:04:12;;;;;;;;;;;;;;;19.61;65.28;101210.97;2092624;28;770;-64
2021/10/14 03:05:12;;;;;;;;;;;;;;;19.57;64.28;101207.44;2092547;28;893;-64
2021/10/14 03:06:12;;;;;;;;;;;;;;;19.58;64.72;101214.59;2092578;28;976;-64
2021/10/14 03:07:12;;;;;;;;;;;;;;;19.55;64.59;101214.66;2092466;28;823;-64
2021/10/14 03:08:12;;;;;;;;;;;;;;;19.58;64.49;101213.72;2092537;28;1246;-65
2021/10/14 03:09:12;;;;;;;;;;;;;;;19.53;64.89;101208.44;2092409;28;1395;-65
2021/10/14 03:10:13;;;;;;;;;;;;;;;19.50;64.94;101208.50;2091922;28;1077;-65
2021/10/14 03:11:13;;;;;;;;;;;;;;;19.50;64.90;101203.13;2092466;28;1240;-65
2021/10/14 03:12:13;;;;;;;;;;;;;;;19.47;64.93;101195.13;2092564;28;956;-65
2021/10/14 03:13:13;;;;;;;;;;;;;;;19.45;65.48;101184.44;2092312;28;818;-64
2021/10/14 03:14:14;;;;;;;;;;;;;;;19.51;65.31;101186.09;2092164;28;984;-64
2021/10/14 03:15:14;;;;;;;;;;;;;;;19.47;65.81;101187.97;2092435;28;869;-64
2021/10/14 03:16:14;;;;;;;;;;;;;;;19.47;65.06;101195.13;2092543;28;964;-64
2021/10/14 03:17:14;;;;;;;;;;;;;;;19.47;65.84;101187.09;2092432;28;1959;-64
2021/10/14 03:18:14;;;;;;;;;;;;;;;19.45;66.42;101189.81;2092516;28;771;-64
2021/10/14 03:19:15;;;;;;;;;;;;;;;19.44;66.00;101189.84;2092534;28;976;-64
2021/10/14 03:20:15;;;;;;;;;;;;;;;19.47;65.37;101187.09;2092420;28;780;-64
2021/10/14 03:21:15;;;;;;;;;;;;;;;19.47;65.74;101182.59;2092422;28;877;-64
2021/10/14 03:22:16;;;;;;;;;;;;;;;19.49;65.87;101188.84;2092434;28;892;-64
2021/10/14 03:23:16;;;;;;;;;;;;;;;19.55;65.34;101186.00;2092444;28;1028;-64
2021/10/14 03:24:16;;;;;;;;;;;;;;;19.53;65.98;101184.25;2092362;28;820;-64
2021/10/14 03:25:16;;;;;;;;;;;;;;;19.54;65.33;101183.34;2092435;28;1196;-64
2021/10/14 03:26:16;;;;;;;;;;;;;;;19.51;65.82;101181.63;2092227;28;1019;-64
2021/10/14 03:27:16;;;;;;;;;;;;;;;19.49;65.46;101178.09;2092485;28;767;-65
2021/10/14 03:28:17;;;;;;;;;;;;;;;19.48;65.83;101183.47;2092449;28;1282;-65
2021/10/14 03:29:17;;;;;;;;;;;;;;;19.49;65.77;101174.50;2092441;28;980;-65
2021/10/14 03:30:17;;;;;;;;;;;;;;;19.47;65.94;101184.38;2092501;28;771;-65
2021/10/14 03:31:17;;;;;;;;;;;;;;;19.51;65.81;101178.03;2092353;28;807;-65
2021/10/14 03:32:17;;;;;;;;;;;;;;;19.48;66.44;101179.00;2092355;28;838;-65
2021/10/14 03:33:17;;;;;;;;;;;;;;;19.48;65.78;101172.72;2092397;28;1538;-64
2021/10/14 03:34:18;;;;;;;;;;;;;;;19.53;65.55;101174.41;2092283;28;877;-64
2021/10/14 03:35:18;;;;;;;;;;;;;;;19.64;65.11;101175.97;2092413;28;1028;-64
2021/10/14 03:36:18;;;;;;;;;;;;;;;19.54;65.78;101183.34;2092352;28;1031;-64
2021/10/14 03:37:18;;;;;;;;;;;;;;;19.53;65.59;101171.72;2086345;28;1890;-64
2021/10/14 03:38:18;;;;;;;;;;;;;;;19.58;65.11;101174.28;2084076;28;858;-64
2021/10/14 03:39:18;;;;;;;;;;;;;;;19.59;64.99;101170.69;2083250;28;886;-64
2021/10/14 03:40:19;;;;;;;;;;;;;;;19.62;64.39;101173.28;2083539;28;763;-64
2021/10/14 03:41:19;;;;;;;;;;;;;;;19.62;64.93;101173.28;2084057;28;834;-64
2021/10/14 03:42:21;;;;;;;;;;;;;;;19.64;64.04;101166.06;2083641;28;791;-64
2021/10/14 03:43:21;;;;;;;;;;;;;;;19.66;64.51;101161.53;2084096;28;787;-64
2021/10/14 03:44:21;;;;;;;;;;;;;;;19.64;64.73;101168.75;2083917;28;882;-64
2021/10/14 03:45:21;;;;;;;;;;;;;;;19.66;63.80;101166.06;2083457;28;810;-65
2021/10/14 03:46:22;;;;;;;;;;;;;;;19.74;64.65;101163.16;2084034;28;807;-65
2021/10/14 03:47:24;;;;;;;;;;;;;;;19.77;63.35;101161.28;2083614;28;956;-64
2021/10/14 03:48:24;;;;;;;;;;;;;;;19.72;64.27;101165.00;2084014;28;831;-65
2021/10/14 03:49:24;;;;;;;;;;;;;;;19.72;64.40;101160.53;2084027;28;844;-65
2021/10/14 03:50:24;;;;;;;;;;;;;;;19.72;64.65;101159.63;2083902;28;764;-65
2021/10/14 03:51:25;;;;;;;;;;;;;;;19.77;63.21;101155.03;2084024;28;900;-64
2021/10/14 03:52:25;;;;;;;;;;;;;;;19.79;63.45;101156.75;2083937;28;878;-64
2021/10/14 03:53:25;;;;;;;;;;;;;;;19.77;63.87;101157.72;2083924;28;1550;-64
2021/10/14 03:54:25;;;;;;;;;;;;;;;19.69;64.17;101149.84;2084014;28;768;-64
2021/10/14 03:55:26;;;;;;;;;;;;;;;19.81;63.53;101151.34;2083723;28;787;-64
2021/10/14 03:56:26;;;;;;;;;;;;;;;19.80;63.45;101147.75;2083974;28;894;-64
2021/10/14 03:57:27;;;;;;;;;;;;;;;19.83;63.87;101149.50;2083914;28;1959;-64
2021/10/14 03:58:27;;;;;;;;;;;;;;;19.84;62.43;101145.88;2083892;28;973;-64
2021/10/14 03:59:27;;;;;;;;;;;;;;;19.80;63.80;101144.19;2083887;28;977;-64
2021/10/14 04:00:27;;;;;;;;;;;;;;;19.79;63.59;101139.75;2083928;28;1012;-64
2021/10/14 04:01:28;;;;;;;;;;;;;;;19.81;64.36;101146.84;2083950;28;787;-64
2021/10/14 04:02:28;;;;;;;;;;;;;;;19.85;63.11;101134.22;2083862;28;1040;-64
2021/10/14 04:03:28;;;;;;;;;;;;;;;19.92;63.78;101129.59;2083497;28;957;-64
2021/10/14 04:04:28;;;;;;;;;;;;;;;20.78;60.34;101128.16;2083948;28;826;-64
2021/10/14 04:05:28;;;;;;;;;;;;;;;21.15;59.78;101125.22;2083904;28;906;-64
2021/10/14 04:06:28;;;;;;;;;;;;;;;21.32;59.36;101113.91;2083219;28;1193;-64
2021/10/14 04:07:29;;;;;;;;;;;;;;;21.39;58.77;101119.97;2083267;28;843;-65
2021/10/14 04:08:29;;;;;;;;;;;;;;;21.48;58.84;101119.66;2083675;28;921;-65
2021/10/14 04:09:29;;;;;;;;;;;;;;;21.59;58.46;101111.22;2083701;28;1094;-65
2021/10/14 04:10:29;;;;;;;;;;;;;;;21.65;57.86;101117.38;2083847;28;1349;-65
2021/10/14 04:11:29;;;;;;;;;;;;;;;21.70;57.85;101119.00;2083807;28;906;-64
2021/10/14 04:12:30;;;;;;;;;;;;;;;21.73;58.53;101110.81;2083768;28;1040;-64
2021/10/14 04:13:30;;;;;;;;;;;;;;;21.77;57.67;101115.16;2083842;28;1038;-64
2021/10/14 04:14:30;;;;;;;;;;;;;;;21.81;57.78;101112.34;2083777;28;974;-64
2021/10/14 04:15:30;;;;;;;;;;;;;;;21.88;57.40;101116.59;2083735;28;969;-64
2021/10/14 04:16:30;;;;;;;;;;;;;;;21.91;56.91;101108.41;2083565;28;835;-64
2021/10/14 04:17:30;;;;;;;;;;;;;;;21.88;58.43;101101.31;2083764;28;1964;-63
2021/10/14 04:18:31;;;;;;;;;;;;;;;21.86;58.11;101095.09;2083694;28;949;-64
2021/10/14 04:19:31;;;;;;;;;;;;;;;21.91;59.08;101100.31;2083754;28;846;-63
2021/10/14 04:20:31;;;;;;;;;;;;;;;21.93;57.94;101095.72;2083693;28;977;-64
2021/10/14 04:21:31;;;;;;;;;;;;;;;21.95;56.73;101093.88;2083668;28;883;-64
2021/10/14 04:22:31;;;;;;;;;;;;;;;21.95;58.53;101093.00;2083763;28;981;-64
2021/10/14 04:23:32;;;;;;;;;;;;;;;21.95;57.97;101099.25;2083741;28;780;-64
2021/10/14 04:24:32;;;;;;;;;;;;;;;22.02;57.46;101106.19;2083612;28;969;-64
2021/10/14 04:25:32;;;;;;;;;;;;;;;22.01;57.34;101101.75;2083718;28;809;-64
2021/10/14 04:26:33;;;;;;;;;;;;;;;22.02;57.48;101094.56;2083666;28;953;-64
2021/10/14 04:27:33;;;;;;;;;;;;;;;21.97;58.05;101097.38;2083655;28;878;-65
2021/10/14 04:28:33;;;;;;;;;;;;;;;21.99;58.23;101095.53;2083649;28;1147;-65
2021/10/14 04:29:33;;;;;;;;;;;;;;;21.97;59.34;101092.00;2083656;28;1017;-64
2021/10/14 04:30:33;;;;;;;;;;;;;;;21.96;58.85;101095.63;2083680;28;776;-64
2021/10/14 04:31:34;;;;;;;;;;;;;;;21.95;58.93;101091.16;2083648;28;811;-64
2021/10/14 04:32:34;;;;;;;;;;;;;;;21.95;58.83;101093.88;2083591;28;751;-63
2021/10/14 04:33:36;;;;;;;;;;;;;;;21.98;58.13;101088.38;2083605;28;954;-64
2021/10/14 04:34:36;;;;;;;;;;;;;;;21.96;59.12;101094.75;2083387;28;871;-63
2021/10/14 04:35:36;;;;;;;;;;;;;;;21.94;58.90;101085.84;2083651;28;922;-63
2021/10/14 04:36:37;;;;;;;;;;;;;;;21.95;59.25;101085.78;2083622;28;1197;-63
2021/10/14 04:37:41;;;;;;;;;;;;;;;21.94;59.98;101083.16;2083512;28;1952;-64
2021/10/14 04:38:41;;;;;;;;;;;;;;;21.96;60.22;101081.28;2083602;28;922;-63
2021/10/14 04:39:41;;;;;;;;;;;;;;;22.01;59.70;101082.88;2083585;28;918;-63
2021/10/14 04:40:41;;;;;;;;;;;;;;;21.98;60.44;101093.75;2083188;28;851;-63
2021/10/14 04:41:41;;;;;;;;;;;;;;;21.97;60.21;101089.31;2083575;28;966;-64
2021/10/14 04:42:42;;;;;;;;;;;;;;;21.96;60.05;101092.06;2083512;28;930;-63
2021/10/14 04:43:42;;;;;;;;;;;;;;;22.00;59.71;101088.31;2083230;28;880;-64
2021/10/14 04:44:42;;;;;;;;;;;;;;;22.01;58.82;101085.56;2083570;28;953;-64
2021/10/14 04:45:42;;;;;;;;;;;;;;;22.00;59.73;101089.19;2083469;28;941;-64
2021/10/14 04:46:42;;;;;;;;;;;;;;;22.01;59.44;101087.41;2083562;28;1142;-64
2021/10/14 04:47:43;;;;;;;;;;;;;;;22.08;59.72;101088.03;2083572;28;1024;-64
2021/10/14 04:48:43;;;;;;;;;;;;;;;22.08;58.92;101082.66;2083523;28;771;-64
2021/10/14 04:49:43;;;;;;;;;;;;;;;22.06;59.08;101086.28;2083533;28;846;-63
2021/10/14 04:50:43;;;;;;;;;;;;;;;22.02;59.63;101076.53;2083390;28;957;-64
2021/10/14 04:51:43;;;;;;;;;;;;;;;22.03;59.67;101078.28;2083270;28;1024;-63
2021/10/14 04:52:44;;;;;;;;;;;;;;;22.06;59.91;101072.78;2083534;28;818;-63
2021/10/14 04:53:44;;;;;;;;;;;;;;;22.06;59.15;101070.09;2083501;28;822;-63
2021/10/14 04:54:45;;;;;;;;;;;;;;;22.05;59.68;101079.13;2083444;28;961;-63
2021/10/14 04:55:45;;;;;;;;;;;;;;;22.10;60.10;101076.25;2083469;28;810;-63
2021/10/14 04:56:45;;;;;;;;;;;;;;;22.11;58.89;101071.75;2083417;28;913;-63
2021/10/14 04:57:45;;;;;;;;;;;;;;;22.17;58.96;101075.09;2083391;28;1964;-63
2021/10/14 04:58:45;;;;;;;;;;;;;;;22.19;58.83;101065.13;2083173;28;902;-63
2021/10/14 04:59:45;;;;;;;;;;;;;;;22.25;58.27;101071.22;2083222;28;871;-63
2021/10/14 05:00:45;;;;;;;;;;;;;;;22.23;58.80;101071.31;2083295;28;1579;-63
2021/10/14 05:01:46;;;;;;;;;;;;;;;22.26;59.16;101062.19;2083474;28;808;-63
2021/10/14 05:02:46;;;;;;;;;;;;;;;22.25;58.55;101058.63;2083402;28;913;-62
2021/10/14 05:03:46;;;;;;;;;;;;;;;22.29;58.43;101057.59;2083434;28;775;-63
2021/10/14 05:04:46;;;;;;;;;;;;;;;22.26;58.02;101052.31;2083091;28;802;-63
2021/10/14 05:05:46;;;;;;;;;;;;;;;22.30;57.93;101053.06;2083440;28;1662;-63
2021/10/14 05:06:47;;;;;;;;;;;;;;;22.30;58.95;101042.25;2083438;28;961;-63
2021/10/14 05:07:47;;;;;;;;;;;;;;;22.31;58.87;101044.91;2083326;28;818;-65
2021/10/14 05:08:47;;;;;;;;;;;;;;;22.33;57.90;101042.16;2083319;28;889;-64
2021/10/14 05:09:47;;;;;;;;;;;;;;;22.32;58.57;101043.09;2083254;28;1058;-63
2021/10/14 05:10:47;;;;;;;;;;;;;;;22.26;58.74;101049.59;2083317;28;1232;-62
2021/10/14 05:11:47;;;;;;;;;;;;;;;22.23;58.87;101033.53;2083415;28;1005;-62
2021/10/14 05:12:47;;;;;;;;;;;;;;;22.33;58.48;101028.66;2083185;28;997;-63
2021/10/14 05:13:48;;;;;;;;;;;;;;;22.29;58.74;101027.91;2083419;28;874;-62
2021/10/14 05:14:48;;;;;;;;;;;;;;;22.28;57.51;101020.75;2083388;28;1016;-61
2021/10/14 05:15:48;;;;;;;;;;;;;;;22.24;58.86;101023.59;2083239;28;842;-60
2021/10/14 05:16:48;;;;;;;;;;;;;;;22.24;58.50;101024.50;2083344;28;870;-61
2021/10/14 05:17:48;;;;;;;;;;;;;;;22.27;58.74;101026.19;2083273;28;1977;-60